Time;durP1;ratioP1;P1;durP2;ratioP2;P2;SDS_P1;SDS_P2;PMS_P1;PMS_P2;Temp;Humidity;BMP_temperature;BMP_pressure;BME280_temperature;BME280_humidity;BME280_pressure;Samples;Min_cycle;Max_cycle;Signal;HPM_P1;HPM_P2
2023/02/20 00:02:15;;;;;;;9.07;3.17;;;6.30;99.90;;;;;;4990128;28;20042;-73
2023/02/20 00:04:41;;;;;;;10.23;4.00;;;6.30;99.90;;;;;;4990562;28;20032;-74
2023/02/20 00:07:06;;;;;;;12.10;4.05;;;6.30;99.90;;;;;;4993265;28;20124;-75
2023/02/20 00:09:32;;;;;;;10.00;3.72;;;6.30;99.90;;;;;;4993776;28;20088;-73
2023/02/20 00:11:57;;;;;;;11.27;4.00;;;6.40;99.90;;;;;;4993160;28;20042;-74
2023/02/20 00:14:29;;;;;;;11.07;3.90;;;6.40;99.90;;;;;;4980938;28;20078;-73
2023/02/20 00:16:57;;;;;;;13.23;3.30;;;6.50;99.90;;;;;;4997740;28;20034;-73
2023/02/20 00:19:26;;;;;;;8.13;3.40;;;6.50;99.90;;;;;;5009431;28;20504;-73
2023/02/20 00:21:51;;;;;;;9.98;4.38;;;6.50;99.90;;;;;;4998379;28;20035;-75
2023/02/20 00:24:18;;;;;;;10.52;3.65;;;6.60;99.90;;;;;;4976340;28;20490;-73
2023/02/20 00:26:53;;;;;;;11.85;3.67;;;6.60;99.90;;;;;;4973849;28;20125;-72
2023/02/20 00:29:20;;;;;;;10.10;3.60;;;6.60;99.90;;;;;;4996919;28;20053;-73
2023/02/20 00:31:54;;;;;;;12.57;3.67;;;6.60;99.90;;;;;;5000764;28;20026;-72
2023/02/20 00:34:21;;;;;;;8.95;3.58;;;6.60;99.90;;;;;;4998930;28;20037;-72
2023/02/20 00:36:47;;;;;;;9.80;3.80;;;6.60;99.90;;;;;;4998455;28;20116;-74
2023/02/20 00:39:13;;;;;;;10.45;3.20;;;6.60;99.90;;;;;;4998608;28;20168;-74
2023/02/20 00:41:38;;;;;;;17.02;4.85;;;6.60;99.90;;;;;;5005951;28;20030;-72
2023/02/20 00:44:04;;;;;;;6.93;3.42;;;6.60;99.90;;;;;;4988600;28;20026;-72
2023/02/20 00:46:30;;;;;;;7.90;3.22;;;6.50;99.90;;;;;;5000443;28;20026;-73
2023/02/20 00:48:55;;;;;;;11.20;3.78;;;6.50;99.90;;;;;;4976527;28;20035;-72
2023/02/20 00:51:21;;;;;;;9.23;3.53;;;6.50;99.90;;;;;;5001778;28;20391;-72
2023/02/20 00:53:46;;;;;;;10.70;3.60;;;6.50;99.90;;;;;;5000306;28;20026;-73
2023/02/20 00:56:12;;;;;;;10.18;3.53;;;6.60;99.90;;;;;;4994514;28;20018;-72
2023/02/20 00:58:38;;;;;;;11.80;4.22;;;6.50;99.90;;;;;;5001059;28;20050;-72
2023/02/20 01:01:04;;;;;;;11.50;4.30;;;6.50;99.90;;;;;;4998454;28;20030;-72
2023/02/20 01:03:29;;;;;;;15.23;5.35;;;6.50;99.90;;;;;;4989343;28;20037;-72
2023/02/20 01:05:55;;;;;;;12.43;4.15;;;6.40;99.90;;;;;;4988400;28;20042;-72
2023/02/20 01:08:20;;;;;;;13.30;3.85;;;6.40;99.90;;;;;;4971303;28;20137;-72
2023/02/20 01:10:46;;;;;;;14.68;4.22;;;6.40;99.90;;;;;;4987946;28;20105;-72
2023/02/20 01:13:11;;;;;;;9.40;3.47;;;6.40;99.90;;;;;;4990814;28;20084;-72
2023/02/20 01:15:37;;;;;;;15.82;4.07;;;6.30;99.90;;;;;;4988127;28;20588;-73
2023/02/20 01:18:04;;;;;;;12.80;4.07;;;6.30;99.90;;;;;;4992078;28;20099;-74
2023/02/20 01:20:31;;;;;;;15.60;4.45;;;6.20;99.90;;;;;;4971499;28;20135;-73
2023/02/20 01:22:56;;;;;;;10.80;3.75;;;6.20;99.90;;;;;;4988024;28;20954;-74
2023/02/20 01:25:22;;;;;;;11.10;4.50;;;6.20;99.90;;;;;;4971894;28;20061;-73
2023/02/20 01:27:48;;;;;;;10.70;4.32;;;6.20;99.90;;;;;;4972341;28;20030;-72
2023/02/20 01:30:13;;;;;;;10.70;3.92;;;6.20;99.90;;;;;;4971979;28;20042;-73
2023/02/20 01:32:39;;;;;;;12.25;4.47;;;6.20;99.90;;;;;;4988802;28;20038;-73
2023/02/20 01:35:05;;;;;;;10.45;3.85;;;6.20;99.90;;;;;;4988666;28;20094;-74
2023/02/20 01:37:31;;;;;;;13.80;4.35;;;6.20;99.90;;;;;;4987874;28;20034;-72
2023/02/20 01:39:57;;;;;;;13.32;4.45;;;6.20;99.90;;;;;;4970704;28;20089;-73
2023/02/20 01:42:24;;;;;;;12.13;4.80;;;6.30;99.90;;;;;;4988811;28;20038;-72
2023/02/20 01:44:50;;;;;;;15.48;5.95;;;6.30;99.90;;;;;;4989560;28;20450;-72
2023/02/20 01:47:18;;;;;;;19.52;6.30;;;6.30;99.90;;;;;;4988379;28;20042;-73
2023/02/20 01:50:02;;;;;;;14.38;5.68;;;6.40;99.90;;;;;;4988117;28;20042;-72
2023/02/20 01:52:32;;;;;;;14.63;6.72;;;6.40;99.90;;;;;;4968274;28;20042;-73
2023/02/20 01:55:10;;;;;;;12.27;4.53;;;6.50;99.90;;;;;;4987995;28;20080;-73
2023/02/20 01:57:41;;;;;;;18.65;6.18;;;6.60;99.90;;;;;;4988015;28;20309;-72
2023/02/20 02:00:10;;;;;;;16.17;6.43;;;6.60;99.90;;;;;;4988171;28;20121;-73
2023/02/20 02:02:40;;;;;;;24.73;6.15;;;6.70;99.90;;;;;;4970566;28;20038;-72
2023/02/20 02:05:08;;;;;;;23.60;6.70;;;6.70;99.90;;;;;;4970181;28;20038;-72
2023/02/20 02:07:34;;;;;;;19.60;6.93;;;6.70;99.90;;;;;;4988519;28;20041;-73
2023/02/20 02:10:06;;;;;;;19.63;6.78;;;6.70;99.90;;;;;;4990028;28;20089;-72
2023/02/20 02:12:33;;;;;;;24.52;7.78;;;6.80;99.90;;;;;;4970710;28;20039;-77
2023/02/20 02:14:58;;;;;;;20.95;8.07;;;6.80;99.90;;;;;;4986423;28;20045;-72
2023/02/20 02:17:56;;;;;;;23.25;7.95;;;6.80;99.90;;;;;;4974164;28;20712;-72
2023/02/20 02:20:43;;;;;;;20.65;7.60;;;6.90;99.90;;;;;;4985420;28;20034;-72
2023/02/20 02:23:19;;;;;;;27.02;7.55;;;6.90;99.90;;;;;;4990455;28;20049;-73
2023/02/20 02:26:20;;;;;;;23.98;8.40;;;6.90;99.90;;;;;;4991287;28;20042;-74
2023/02/20 02:29:36;;;;;;;32.80;9.77;;;7.00;99.90;;;;;;4987086;28;20454;-73
2023/02/20 02:32:40;;;;;;;20.50;8.52;;;7.00;99.90;;;;;;4963986;28;20040;-73
2023/02/20 02:35:49;;;;;;;31.30;9.27;;;7.00;99.90;;;;;;4988320;28;20137;-73
2023/02/20 02:38:26;;;;;;;27.63;9.43;;;7.10;99.90;;;;;;4987839;28;20038;-72
2023/02/20 02:41:23;;;;;;;32.65;8.52;;;7.10;99.90;;;;;;4984503;28;20045;-76
2023/02/20 02:43:58;;;;;;;21.85;8.45;;;7.10;99.90;;;;;;4999321;28;20070;-73
2023/02/20 02:46:35;;;;;;;41.05;8.77;;;7.10;99.90;;;;;;4984667;28;20041;-73
2023/02/20 02:49:19;;;;;;;28.65;9.80;;;7.20;99.90;;;;;;4968086;28;20398;-73
2023/02/20 02:51:46;;;;;;;27.98;8.57;;;7.20;99.90;;;;;;4987276;28;20038;-73
2023/02/20 02:54:15;;;;;;;24.45;8.63;;;7.20;99.90;;;;;;4969655;28;20143;-73
2023/02/20 02:56:44;;;;;;;34.00;10.50;;;7.20;99.90;;;;;;4988207;28;20069;-72
2023/02/20 02:59:24;;;;;;;25.20;9.63;;;7.30;99.90;;;;;;4986462;28;20034;-73
2023/02/20 03:01:59;;;;;;;30.30;10.43;;;7.30;99.90;;;;;;4984755;28;20042;-72
2023/02/20 03:04:28;;;;;;;20.80;9.18;;;7.30;99.90;;;;;;4967233;28;20163;-74
2023/02/20 03:06:58;;;;;;;29.58;10.25;;;7.30;99.90;;;;;;4986331;28;20033;-73
2023/02/20 03:09:36;;;;;;;25.60;9.10;;;7.30;99.90;;;;;;4987488;28;20057;-73
2023/02/20 03:12:02;;;;;;;27.20;9.82;;;7.30;99.90;;;;;;4987018;28;20027;-72
2023/02/20 03:17:28;;;;;;;29.70;7.93;;;7.40;99.90;;;;;;4986910;28;20367;-73
2023/02/20 03:19:58;;;;;;;27.33;9.50;;;7.30;99.90;;;;;;4986683;28;20113;-73
2023/02/20 03:22:25;;;;;;;27.60;9.13;;;7.40;99.90;;;;;;4987659;28;20050;-72
2023/02/20 03:24:58;;;;;;;31.23;9.85;;;7.30;99.90;;;;;;4986859;28;20042;-72
2023/02/20 03:27:37;;;;;;;33.80;9.32;;;7.30;99.90;;;;;;4990175;28;20037;-72
2023/02/20 03:30:09;;;;;;;25.20;9.13;;;7.30;99.90;;;;;;4990626;28;20045;-72
2023/02/20 03:43:45;;;;;;;26.95;9.70;;;7.40;99.90;;;;;;4995098;28;20041;-73
2023/02/20 03:46:21;;;;;;;26.23;9.90;;;7.30;99.90;;;;;;4990531;28;20068;-75
2023/02/20 03:48:55;;;;;;;26.95;10.07;;;7.40;99.90;;;;;;4991208;28;20049;-73
2023/02/20 03:51:22;;;;;;;36.08;8.25;;;7.50;99.90;;;;;;5006263;28;20483;-72
2023/02/20 03:53:47;;;;;;;28.50;9.38;;;7.40;99.90;;;;;;4998305;28;20521;-74
2023/02/20 03:56:18;;;;;;;31.73;9.43;;;7.40;99.90;;;;;;4990355;28;20113;-72
2023/02/20 03:58:51;;;;;;;22.45;9.05;;;7.50;99.90;;;;;;4994188;28;20395;-73
2023/02/20 04:01:20;;;;;;;29.92;9.93;;;7.50;99.90;;;;;;4993898;28;20029;-74
2023/02/20 04:03:48;;;;;;;31.60;10.02;;;7.50;99.90;;;;;;4990305;28;20418;-72
2023/02/20 04:06:16;;;;;;;33.38;9.13;;;7.50;99.90;;;;;;4993304;28;20431;-73
2023/02/20 04:08:59;;;;;;;28.90;9.05;;;7.60;99.90;;;;;;4993774;28;20134;-72
2023/02/20 04:11:34;;;;;;;26.23;9.57;;;7.60;99.90;;;;;;4993610;28;20542;-73
2023/02/20 04:14:01;;;;;;;23.65;9.18;;;7.50;99.90;;;;;;4973087;28;20034;-72
2023/02/20 04:16:27;;;;;;;29.20;9.85;;;7.50;99.90;;;;;;4992676;28;20034;-73
2023/02/20 04:18:52;;;;;;;27.88;9.93;;;7.50;99.90;;;;;;4996678;28;20054;-72
2023/02/20 04:21:41;;;;;;;24.70;10.85;;;7.50;99.90;;;;;;4992228;28;20035;-72
2023/02/20 04:24:17;;;;;;;32.17;9.77;;;7.60;99.90;;;;;;4987940;28;20399;-73
2023/02/20 04:26:42;;;;;;;28.73;9.23;;;7.60;99.90;;;;;;4993278;28;20058;-74
2023/02/20 04:29:08;;;;;;;34.70;10.82;;;7.60;99.90;;;;;;4992967;28;20030;-73
2023/02/20 04:31:34;;;;;;;29.50;11.30;;;7.70;99.90;;;;;;4989476;28;20041;-74
2023/02/20 04:33:59;;;;;;;35.45;11.02;;;7.70;99.90;;;;;;4992657;28;20121;-74
2023/02/20 04:36:26;;;;;;;27.40;10.02;;;7.70;99.90;;;;;;4993072;28;20034;-72
2023/02/20 04:38:52;;;;;;;27.67;10.50;;;7.70;99.90;;;;;;4990759;28;20037;-72
2023/02/20 04:41:17;;;;;;;30.48;11.15;;;7.70;99.90;;;;;;4971836;28;20023;-72
2023/02/20 04:43:43;;;;;;;33.60;11.15;;;7.70;99.90;;;;;;4975239;28;20046;-73
2023/02/20 04:46:08;;;;;;;27.05;9.38;;;7.70;99.90;;;;;;4992261;28;20088;-73
2023/02/20 04:48:34;;;;;;;29.45;10.23;;;7.70;99.90;;;;;;4989445;28;20527;-75
2023/02/20 04:51:00;;;;;;;26.70;10.13;;;7.70;99.90;;;;;;4989235;28;20124;-73
2023/02/20 04:53:25;;;;;;;27.45;8.82;;;7.80;99.90;;;;;;4975227;28;20518;-72
2023/02/20 04:55:51;;;;;;;32.15;9.13;;;7.80;99.90;;;;;;4992110;28;20506;-74
2023/02/20 04:58:16;;;;;;;34.63;10.18;;;7.80;99.90;;;;;;4990914;28;20029;-72
2023/02/20 05:00:42;;;;;;;30.20;9.57;;;7.80;99.90;;;;;;4991947;28;20571;-72
2023/02/20 05:03:08;;;;;;;26.95;8.77;;;7.80;99.90;;;;;;4971693;28;20038;-75
2023/02/20 05:05:33;;;;;;;31.27;9.38;;;7.80;99.90;;;;;;4994290;28;20038;-75
2023/02/20 05:08:02;;;;;;;25.65;9.63;;;7.80;99.90;;;;;;4985863;28;20129;-76
2023/02/20 05:10:29;;;;;;;18.92;7.65;;;7.80;99.90;;;;;;4994430;28;20053;-73
2023/02/20 05:12:56;;;;;;;27.88;9.10;;;7.80;99.90;;;;;;4988567;28;20491;-72
2023/02/20 05:15:22;;;;;;;21.35;7.78;;;7.90;99.90;;;;;;4991890;28;20029;-73
2023/02/20 05:17:48;;;;;;;25.15;8.25;;;7.80;99.90;;;;;;4991358;28;20050;-72
2023/02/20 05:20:14;;;;;;;23.00;8.25;;;7.80;99.90;;;;;;4993297;28;20038;-72
2023/02/20 05:22:40;;;;;;;20.48;7.90;;;7.80;99.90;;;;;;4989338;28;20065;-73
2023/02/20 05:25:06;;;;;;;21.50;7.72;;;7.80;99.90;;;;;;4991214;28;20647;-74
2023/02/20 05:27:31;;;;;;;23.35;7.97;;;7.80;99.90;;;;;;4989107;28;20053;-73
2023/02/20 05:29:59;;;;;;;19.67;8.07;;;7.80;99.90;;;;;;4988335;28;20105;-72
2023/02/20 05:32:26;;;;;;;17.13;6.05;;;7.80;99.90;;;;;;4990896;28;20572;-73
2023/02/20 05:34:52;;;;;;;21.98;6.65;;;7.80;99.90;;;;;;4987733;28;20402;-72
2023/02/20 05:37:20;;;;;;;21.88;7.35;;;7.80;99.90;;;;;;4987999;28;20046;-73
2023/02/20 05:39:46;;;;;;;24.98;6.18;;;7.80;99.90;;;;;;4989548;28;20026;-73
2023/02/20 05:42:12;;;;;;;16.63;5.43;;;7.90;99.90;;;;;;4990550;28;20042;-72
2023/02/20 05:44:38;;;;;;;22.52;6.90;;;7.90;99.90;;;;;;4987859;28;20093;-74
2023/02/20 05:47:06;;;;;;;17.27;5.45;;;7.90;99.90;;;;;;4987079;28;20042;-74
2023/02/20 05:49:33;;;;;;;18.35;7.10;;;7.90;99.90;;;;;;4971432;28;20141;-73
2023/02/20 05:52:00;;;;;;;25.73;5.63;;;7.90;99.90;;;;;;4987893;28;20042;-74
2023/02/20 05:54:25;;;;;;;19.20;5.90;;;7.90;99.90;;;;;;4990687;28;20038;-74
2023/02/20 05:56:51;;;;;;;12.93;5.00;;;7.90;99.90;;;;;;5002401;28;20593;-74
2023/02/20 05:59:20;;;;;;;18.27;6.40;;;7.90;99.90;;;;;;4986360;28;20117;-73
2023/02/20 06:01:46;;;;;;;14.30;5.78;;;7.90;99.90;;;;;;4987643;28;20034;-73
2023/02/20 06:04:12;;;;;;;17.05;5.97;;;7.90;99.90;;;;;;4989392;28;20402;-73
2023/02/20 06:06:41;;;;;;;14.85;5.63;;;7.90;99.90;;;;;;4987327;28;20034;-74
2023/02/20 06:09:11;;;;;;;20.38;5.43;;;7.80;99.90;;;;;;4987351;28;20034;-74
2023/02/20 06:11:38;;;;;;;18.73;5.50;;;7.90;99.90;;;;;;4985917;28;20542;-72
2023/02/20 06:14:05;;;;;;;15.25;5.30;;;7.80;99.90;;;;;;4989963;28;20045;-72
2023/02/20 06:16:32;;;;;;;19.00;5.43;;;7.90;99.90;;;;;;4982366;28;20038;-73
2023/02/20 06:18:59;;;;;;;22.58;6.05;;;7.90;99.90;;;;;;4985580;28;20058;-73
2023/02/20 06:21:25;;;;;;;23.45;6.70;;;7.90;99.90;;;;;;4971218;28;20095;-73
2023/02/20 06:23:52;;;;;;;16.38;4.93;;;7.90;99.90;;;;;;4969395;28;20038;-72
2023/02/20 06:26:18;;;;;;;18.35;5.68;;;7.90;99.90;;;;;;4970581;28;20089;-74
2023/02/20 06:28:44;;;;;;;17.45;5.35;;;7.90;99.90;;;;;;4986881;28;20499;-72
2023/02/20 06:31:10;;;;;;;15.88;5.40;;;7.90;99.90;;;;;;4968032;28;20049;-73
2023/02/20 06:33:36;;;;;;;19.38;6.47;;;8.00;99.90;;;;;;4967032;28;20040;-73
2023/02/20 06:36:04;;;;;;;14.98;5.13;;;8.00;99.90;;;;;;5001981;28;20189;-74
2023/02/20 06:38:30;;;;;;;18.90;6.13;;;8.00;99.90;;;;;;4984804;28;20612;-73
2023/02/20 06:40:55;;;;;;;18.95;5.55;;;7.90;99.90;;;;;;4985680;28;20034;-73
2023/02/20 06:43:21;;;;;;;17.90;5.22;;;7.90;99.90;;;;;;4985749;28;20391;-72
2023/02/20 06:45:46;;;;;;;13.80;5.22;;;8.00;99.90;;;;;;4984995;28;20038;-73
2023/02/20 06:48:13;;;;;;;18.48;5.10;;;7.90;99.90;;;;;;4986301;28;20419;-74
2023/02/20 06:50:39;;;;;;;17.10;4.63;;;7.90;99.90;;;;;;4984330;28;20031;-73
2023/02/20 06:53:05;;;;;;;16.77;5.60;;;7.90;99.90;;;;;;4984562;28;20038;-72
2023/02/20 06:55:31;;;;;;;20.35;5.60;;;8.00;99.90;;;;;;4967941;28;20042;-72
2023/02/20 06:57:57;;;;;;;20.30;5.10;;;8.00;99.90;;;;;;4998808;28;20403;-73
2023/02/20 07:00:23;;;;;;;20.27;4.63;;;8.10;99.90;;;;;;4986620;28;20048;-72
2023/02/20 07:02:48;;;;;;;18.75;4.40;;;8.00;99.90;;;;;;4984234;28;20046;-75
2023/02/20 07:05:14;;;;;;;13.02;4.78;;;8.10;99.90;;;;;;4983248;28;20476;-74
2023/02/20 07:07:40;;;;;;;16.00;4.20;;;8.10;99.90;;;;;;4968211;28;20038;-74
2023/02/20 07:10:05;;;;;;;16.90;4.50;;;8.10;99.90;;;;;;4985186;28;20038;-72
2023/02/20 07:12:32;;;;;;;20.65;6.20;;;8.10;99.90;;;;;;4967554;28;20435;-73
2023/02/20 07:14:58;;;;;;;17.73;4.80;;;8.10;99.90;;;;;;4987751;28;20042;-73
2023/02/20 07:17:24;;;;;;;24.60;4.18;;;8.10;99.90;;;;;;4985152;28;20043;-73
2023/02/20 07:19:50;;;;;;;14.13;4.15;;;8.10;99.90;;;;;;4984693;28;20053;-73
2023/02/20 07:22:16;;;;;;;15.10;4.25;;;8.10;99.90;;;;;;4984067;28;20042;-74
2023/02/20 07:24:42;;;;;;;15.07;4.07;;;8.20;99.90;;;;;;4985470;28;20036;-74
2023/02/20 07:27:09;;;;;;;17.65;5.22;;;8.20;99.90;;;;;;4984606;28;20081;-73
2023/02/20 07:29:36;;;;;;;19.58;4.55;;;8.20;99.90;;;;;;4983485;28;20446;-73
2023/02/20 07:32:02;;;;;;;16.83;5.25;;;8.20;99.90;;;;;;4985941;28;20027;-74
2023/02/20 07:34:27;;;;;;;13.30;4.28;;;8.20;99.90;;;;;;4984112;28;20038;-73
2023/02/20 07:36:53;;;;;;;21.33;3.90;;;8.20;99.90;;;;;;4984432;28;20041;-73
2023/02/20 07:39:18;;;;;;;24.98;4.32;;;8.20;99.90;;;;;;4986282;28;20038;-73
2023/02/20 07:41:44;;;;;;;12.65;4.45;;;8.20;99.90;;;;;;4966201;28;20034;-72
2023/02/20 07:44:11;;;;;;;11.82;4.25;;;8.20;99.90;;;;;;4983596;28;20118;-74
2023/02/20 07:46:37;;;;;;;15.18;5.38;;;8.30;99.90;;;;;;4986661;28;20121;-72
2023/02/20 07:49:04;;;;;;;19.02;4.50;;;8.30;99.90;;;;;;4985439;28;20113;-73
2023/02/20 07:51:30;;;;;;;17.58;5.05;;;8.30;99.90;;;;;;4998980;28;20153;-73
2023/02/20 07:53:56;;;;;;;23.13;5.25;;;8.30;99.90;;;;;;4983674;28;20085;-73
2023/02/20 07:56:22;;;;;;;13.18;4.65;;;8.30;99.90;;;;;;4986095;28;20034;-73
2023/02/20 07:58:49;;;;;;;13.55;3.60;;;8.30;99.90;;;;;;4985771;28;20057;-72
2023/02/20 08:01:15;;;;;;;18.77;5.05;;;8.30;99.90;;;;;;4983532;28;20142;-73
2023/02/20 08:03:41;;;;;;;11.73;3.92;;;8.40;99.90;;;;;;4985171;28;20490;-73
2023/02/20 08:06:06;;;;;;;18.63;4.55;;;8.40;99.90;;;;;;4988914;28;20066;-72
2023/02/20 08:08:32;;;;;;;21.15;4.60;;;8.40;99.90;;;;;;4986500;28;20040;-72
2023/02/20 08:10:58;;;;;;;18.83;4.05;;;8.50;99.90;;;;;;4983954;28;20035;-72
2023/02/20 08:13:24;;;;;;;13.40;3.47;;;8.50;99.90;;;;;;4970641;28;20045;-73
2023/02/20 08:15:49;;;;;;;14.32;3.75;;;8.50;99.90;;;;;;4988949;28;20066;-72
2023/02/20 08:18:15;;;;;;;22.27;4.22;;;8.50;99.90;;;;;;4988058;28;20050;-73
2023/02/20 08:20:41;;;;;;;19.02;3.40;;;8.60;99.90;;;;;;4990268;28;20036;-73
2023/02/20 08:23:16;;;;;;;12.65;3.75;;;8.60;99.90;;;;;;4986583;28;20105;-72
2023/02/20 08:25:42;;;;;;;15.05;3.22;;;8.70;99.90;;;;;;4987056;28;20639;-73
2023/02/20 08:28:07;;;;;;;15.68;4.45;;;8.80;99.90;;;;;;4989780;28;20088;-72
2023/02/20 08:30:33;;;;;;;15.98;4.47;;;8.80;99.90;;;;;;4994460;28;20029;-74
2023/02/20 08:33:01;;;;;;;19.30;4.60;;;8.80;99.90;;;;;;4986193;28;20036;-73
2023/02/20 08:35:26;;;;;;;28.90;4.55;;;8.80;99.90;;;;;;4989463;28;20049;-73
2023/02/20 08:37:52;;;;;;;16.02;4.55;;;8.80;99.90;;;;;;4989777;28;20046;-73
2023/02/20 08:40:18;;;;;;;19.10;3.45;;;8.80;99.90;;;;;;4988292;28;20517;-72
2023/02/20 08:42:43;;;;;;;17.75;3.72;;;8.90;99.90;;;;;;4988319;28;20062;-73
2023/02/20 08:45:09;;;;;;;12.52;3.75;;;8.90;99.90;;;;;;4988973;28;20069;-72
2023/02/20 08:47:35;;;;;;;22.83;4.10;;;8.90;99.90;;;;;;5007523;28;20104;-73
2023/02/20 08:50:00;;;;;;;20.83;4.10;;;8.90;99.90;;;;;;4990000;28;20034;-73
2023/02/20 08:52:26;;;;;;;11.93;4.40;;;8.90;99.90;;;;;;4974120;28;20121;-72
2023/02/20 08:54:52;;;;;;;13.07;3.45;;;9.00;99.90;;;;;;4990123;28;20495;-73
2023/02/20 08:57:18;;;;;;;18.90;3.83;;;9.00;99.90;;;;;;4990875;28;20495;-73
2023/02/20 08:59:44;;;;;;;10.68;3.20;;;9.00;99.90;;;;;;4990309;28;20100;-73
2023/02/20 09:02:27;;;;;;;13.27;4.63;;;9.10;99.90;;;;;;4988381;28;20120;-72
2023/02/20 09:04:54;;;;;;;18.85;4.43;;;9.10;99.90;;;;;;4972504;28;20038;-73
2023/02/20 09:07:20;;;;;;;13.27;4.88;;;9.10;99.90;;;;;;4991609;28;20029;-74
2023/02/20 09:09:46;;;;;;;13.38;3.60;;;9.10;99.90;;;;;;4970647;28;20038;-72
2023/02/20 09:12:12;;;;;;;14.25;5.35;;;9.10;99.90;;;;;;4991028;28;20046;-72
2023/02/20 09:14:37;;;;;;;12.38;4.10;;;9.10;99.90;;;;;;4972287;28;20452;-73
2023/02/20 09:17:04;;;;;;;16.08;4.10;;;9.20;99.90;;;;;;4986966;28;20034;-72
2023/02/20 09:19:30;;;;;;;8.90;3.53;;;9.20;99.90;;;;;;4991164;28;20045;-73
2023/02/20 09:21:55;;;;;;;12.25;3.75;;;9.30;99.90;;;;;;4988023;28;20034;-75
2023/02/20 09:24:21;;;;;;;10.52;3.53;;;9.30;99.90;;;;;;4990046;28;20030;-73
2023/02/20 09:26:46;;;;;;;21.25;3.92;;;9.30;99.90;;;;;;4987142;28;20447;-73
2023/02/20 09:29:12;;;;;;;8.50;3.70;;;9.40;99.90;;;;;;4985571;28;20396;-72
2023/02/20 09:31:38;;;;;;;13.52;4.05;;;9.40;99.90;;;;;;4992978;28;20038;-73
2023/02/20 09:34:03;;;;;;;12.82;3.28;;;9.30;99.90;;;;;;4987546;28;20161;-73
2023/02/20 09:36:29;;;;;;;14.30;3.78;;;9.40;99.90;;;;;;4991261;28;20027;-72
2023/02/20 09:38:55;;;;;;;11.52;3.50;;;9.30;99.90;;;;;;4989940;28;20062;-72
2023/02/20 09:41:39;;;;;;;13.02;4.00;;;9.40;99.90;;;;;;4987381;28;20034;-72
2023/02/20 09:44:28;;;;;;;9.85;3.17;;;9.40;99.90;;;;;;4989007;28;20035;-73
2023/02/20 09:47:02;;;;;;;10.77;3.38;;;9.40;99.90;;;;;;4989237;28;20514;-73
2023/02/20 09:49:36;;;;;;;9.93;3.03;;;9.30;99.90;;;;;;4988442;28;20057;-73
2023/02/20 09:52:11;;;;;;;10.43;3.78;;;9.30;99.90;;;;;;5000020;28;20525;-72
2023/02/20 09:54:46;;;;;;;10.10;3.65;;;9.40;99.90;;;;;;4985821;28;20518;-73
2023/02/20 09:57:17;;;;;;;7.43;2.55;;;9.40;99.90;;;;;;4983219;28;20030;-74
2023/02/20 09:59:51;;;;;;;9.65;2.78;;;9.50;99.90;;;;;;4985145;28;20029;-73
2023/02/20 10:02:27;;;;;;;10.80;2.83;;;9.40;99.90;;;;;;4986158;28;20154;-72
2023/02/20 10:05:01;;;;;;;9.80;3.40;;;9.50;99.90;;;;;;4985741;28;20480;-72
2023/02/20 10:07:35;;;;;;;4.40;2.28;;;9.50;99.90;;;;;;4985836;28;20050;-73
2023/02/20 10:10:18;;;;;;;9.00;3.13;;;9.50;99.90;;;;;;4984000;28;20042;-74
2023/02/20 10:13:06;;;;;;;8.95;2.78;;;9.50;99.90;;;;;;4986166;28;20138;-73
2023/02/20 10:15:55;;;;;;;6.68;2.78;;;9.50;99.90;;;;;;4986436;28;20141;-73
2023/02/20 10:18:58;;;;;;;15.45;2.63;;;9.60;99.90;;;;;;4984966;28;20045;-73
2023/02/20 10:21:47;;;;;;;10.48;2.78;;;9.60;99.90;;;;;;4986288;28;20049;-73
2023/02/20 10:24:31;;;;;;;7.82;3.25;;;9.60;99.90;;;;;;4984330;28;20474;-73
2023/02/20 10:27:15;;;;;;;10.10;3.25;;;9.60;99.90;;;;;;4983934;28;20047;-74
2023/02/20 10:29:43;;;;;;;7.60;2.80;;;9.50;99.90;;;;;;4985885;28;20395;-74
2023/02/20 10:32:15;;;;;;;8.70;2.75;;;9.50;99.90;;;;;;4985584;28;20094;-73
2023/02/20 10:34:48;;;;;;;8.30;2.60;;;9.60;99.90;;;;;;4984745;28;20034;-74
2023/02/20 10:37:21;;;;;;;7.90;2.55;;;9.60;99.90;;;;;;4983449;28;20050;-74
2023/02/20 10:39:56;;;;;;;10.30;3.22;;;9.60;99.90;;;;;;4984857;28;20430;-74
2023/02/20 10:42:33;;;;;;;6.25;3.08;;;9.70;99.90;;;;;;4984438;28;20038;-74
2023/02/20 10:45:07;;;;;;;6.55;2.72;;;9.60;99.90;;;;;;4983451;28;20030;-72
2023/02/20 10:47:47;;;;;;;9.77;2.83;;;9.60;99.90;;;;;;4986194;28;20038;-72
2023/02/20 10:50:19;;;;;;;6.78;2.78;;;9.70;99.90;;;;;;4979182;28;20100;-72
2023/02/20 10:52:59;;;;;;;8.48;2.70;;;9.60;99.90;;;;;;4984684;28;20168;-73
2023/02/20 10:55:37;;;;;;;6.18;2.75;;;9.60;99.90;;;;;;4983362;28;20145;-71
2023/02/20 10:58:09;;;;;;;9.10;2.28;;;9.70;99.90;;;;;;4979559;28;20141;-73
2023/02/20 11:00:58;;;;;;;6.68;3.10;;;9.60;99.90;;;;;;4966320;28;20513;-72
2023/02/20 11:03:52;;;;;;;12.48;3.22;;;9.70;99.90;;;;;;4963056;28;20046;-72
2023/02/20 11:06:20;;;;;;;8.98;2.72;;;9.70;99.90;;;;;;4963998;28;20037;-72
2023/02/20 11:08:46;;;;;;;5.68;2.58;;;9.70;99.90;;;;;;4963324;28;20038;-72
2023/02/20 11:11:27;;;;;;;8.30;2.55;;;9.70;99.90;;;;;;4967531;28;20050;-73
2023/02/20 11:13:52;;;;;;;7.93;2.75;;;9.70;99.90;;;;;;4963374;28;20066;-73
2023/02/20 11:16:40;;;;;;;3.78;2.30;;;9.70;99.90;;;;;;4979720;28;20062;-73
2023/02/20 11:19:14;;;;;;;6.72;2.38;;;9.70;99.90;;;;;;4963397;28;20125;-73
2023/02/20 11:21:44;;;;;;;7.18;2.50;;;9.80;99.90;;;;;;4964901;28;20165;-73
2023/02/20 11:24:19;;;;;;;5.90;2.35;;;9.70;99.90;;;;;;4960687;28;20030;-73
2023/02/20 11:26:47;;;;;;;6.95;2.58;;;9.90;99.90;;;;;;4963521;28;20039;-74
2023/02/20 11:29:15;;;;;;;8.88;2.70;;;9.90;99.90;;;;;;4963931;28;20167;-72
2023/02/20 11:31:42;;;;;;;4.95;2.40;;;9.90;99.90;;;;;;4965946;28;20050;-73
2023/02/20 11:34:16;;;;;;;5.35;2.72;;;9.90;99.90;;;;;;4962595;28;20149;-72
2023/02/20 11:36:54;;;;;;;5.85;2.83;;;9.90;99.90;;;;;;4964093;28;21309;-72
2023/02/20 11:39:24;;;;;;;7.65;3.25;;;9.90;99.90;;;;;;4959850;28;20038;-73
2023/02/20 11:42:14;;;;;;;5.95;2.88;;;9.90;99.90;;;;;;4965557;28;20031;-73
2023/02/20 11:44:40;;;;;;;7.03;2.60;;;9.90;99.90;;;;;;4964531;28;20380;-73
2023/02/20 11:47:26;;;;;;;7.70;2.33;;;9.90;99.90;;;;;;4963034;28;20038;-72
2023/02/20 11:50:17;;;;;;;8.60;2.67;;;9.90;99.90;;;;;;4966781;28;20568;-73
2023/02/20 11:53:06;;;;;;;8.18;2.55;;;9.90;99.90;;;;;;4967572;28;20093;-72
2023/02/20 11:55:33;;;;;;;7.53;2.35;;;9.90;99.90;;;;;;4968241;28;20035;-72
2023/02/20 11:58:00;;;;;;;7.78;2.42;;;9.90;99.90;;;;;;4966350;28;20110;-72
2023/02/20 12:00:29;;;;;;;9.88;2.45;;;10.00;99.90;;;;;;4966897;28;20516;-73
2023/02/20 12:03:04;;;;;;;5.40;1.90;;;10.00;99.90;;;;;;4968322;28;20054;-72
2023/02/20 12:05:45;;;;;;;6.60;2.65;;;10.00;99.90;;;;;;4966633;28;20174;-72
2023/02/20 12:08:30;;;;;;;8.23;2.42;;;10.10;99.90;;;;;;4966017;28;20050;-73
2023/02/20 12:11:00;;;;;;;11.52;2.78;;;10.10;99.90;;;;;;4996120;28;20549;-73
2023/02/20 12:13:26;;;;;;;12.02;3.55;;;10.10;99.90;;;;;;4981715;28;20042;-72
2023/02/20 12:16:27;;;;;;;7.38;2.40;;;10.10;99.90;;;;;;4967557;28;20084;-72
2023/02/20 12:19:04;;;;;;;3.20;2.25;;;10.10;99.90;;;;;;4965805;28;20093;-73
2023/02/20 12:21:54;;;;;;;10.05;2.20;;;10.10;99.90;;;;;;4974231;28;20053;-72
2023/02/20 12:24:46;;;;;;;4.63;2.15;;;10.10;99.90;;;;;;5004965;28;20125;-74
2023/02/20 12:27:33;;;;;;;9.10;2.90;;;10.20;99.90;;;;;;4978657;28;20498;-74
2023/02/20 12:30:24;;;;;;;6.93;2.58;;;10.20;99.90;;;;;;4978491;28;20495;-72
2023/02/20 12:32:59;;;;;;;9.30;2.30;;;10.10;99.90;;;;;;4976709;28;20033;-73
2023/02/20 12:35:32;;;;;;;7.22;2.97;;;10.10;99.90;;;;;;4992629;28;20034;-72
2023/02/20 12:38:21;;;;;;;6.63;3.20;;;10.20;99.90;;;;;;4993028;28;20022;-74
2023/02/20 12:41:15;;;;;;;7.80;2.22;;;10.10;99.90;;;;;;4998854;28;20092;-73
2023/02/20 12:44:01;;;;;;;10.95;3.70;;;10.10;99.90;;;;;;4997467;28;20056;-75
2023/02/20 12:47:04;;;;;;;11.40;2.35;;;10.10;99.90;;;;;;4989313;28;20042;-73
2023/02/20 12:49:29;;;;;;;9.63;2.95;;;10.10;99.90;;;;;;4986391;28;20038;-72
2023/02/20 12:52:25;;;;;;;7.18;2.63;;;10.10;99.90;;;;;;4991368;28;20045;-72
2023/02/20 12:55:05;;;;;;;10.43;2.17;;;10.20;99.90;;;;;;4987054;28;20026;-72
2023/02/20 12:57:50;;;;;;;7.20;2.40;;;10.10;99.90;;;;;;4984492;28;20042;-73
2023/02/20 13:00:26;;;;;;;8.77;3.03;;;10.20;99.90;;;;;;4984195;28;20046;-74
2023/02/20 13:03:05;;;;;;;7.82;2.40;;;10.20;99.90;;;;;;4985171;28;20041;-75
2023/02/20 13:05:33;;;;;;;9.95;3.53;;;10.30;99.90;;;;;;4985234;28;20027;-74
2023/02/20 13:08:14;;;;;;;7.70;1.92;;;10.30;99.90;;;;;;4985045;28;20042;-73
2023/02/20 13:10:55;;;;;;;8.20;2.22;;;10.30;99.90;;;;;;4985808;28;20034;-73
2023/02/20 13:13:22;;;;;;;11.52;2.88;;;10.40;99.90;;;;;;4985461;28;20038;-72
2023/02/20 13:16:12;;;;;;;8.88;2.60;;;10.40;99.90;;;;;;4985162;28;20041;-73
2023/02/20 13:18:57;;;;;;;13.48;3.20;;;10.40;99.90;;;;;;5003557;28;20038;-72
2023/02/20 13:21:27;;;;;;;5.70;2.60;;;10.50;99.90;;;;;;4989248;28;20390;-72
2023/02/20 13:24:20;;;;;;;10.88;3.60;;;10.50;99.90;;;;;;4998734;28;20030;-72